createdAt,value
2024-05-09T00:00:29.590Z,48.02
2024-05-09T00:04:16.433Z,48.04
2024-05-09T00:07:42.301Z,48.15
2024-05-09T00:11:08.374Z,48.34
2024-05-09T00:14:36.321Z,48.45
2024-05-09T00:18:07.289Z,48.45
2024-05-09T00:21:33.479Z,48.59
2024-05-09T00:24:59.748Z,48.54
2024-05-09T00:28:25.739Z,48.61
2024-05-09T00:31:51.218Z,48.66
2024-05-09T00:35:19.344Z,48.90
2024-05-09T00:38:45.667Z,48.96
2024-05-09T00:42:11.102Z,48.87
2024-05-09T00:45:37.414Z,49.02
2024-05-09T00:49:03.210Z,49.00
2024-05-09T00:52:29.299Z,49.19
2024-05-09T00:55:55.472Z,49.13
2024-05-09T00:59:21.515Z,49.16
2024-05-09T01:02:47.378Z,49.26
2024-05-09T01:06:14.116Z,49.51
2024-05-09T01:09:39.740Z,49.52
2024-05-09T01:13:05.451Z,49.60
2024-05-09T01:16:31.500Z,49.63
2024-05-09T01:19:59.953Z,49.97
2024-05-09T01:23:25.620Z,50.07
2024-05-09T01:26:51.430Z,50.07
2024-05-09T01:30:21.246Z,50.02
2024-05-09T01:33:48.684Z,50.44
2024-05-09T01:37:14.136Z,50.39
2024-05-09T01:40:40.579Z,50.66
2024-05-09T01:44:05.622Z,50.64
2024-05-09T01:47:31.596Z,50.94
2024-05-09T01:50:57.691Z,50.77
2024-05-09T01:54:23.475Z,51.21
2024-05-09T01:57:48.982Z,51.19
2024-05-09T02:01:16.168Z,51.18
2024-05-09T02:04:41.776Z,51.42
2024-05-09T02:08:13.073Z,51.38
2024-05-09T02:11:43.635Z,51.17
2024-05-09T02:15:10.404Z,51.22
2024-05-09T02:18:36.208Z,51.66
2024-05-09T02:22:02.071Z,51.78
2024-05-09T02:25:27.846Z,51.96
2024-05-09T02:28:53.540Z,51.69
2024-05-09T02:32:19.294Z,51.99
2024-05-09T02:35:45.396Z,51.88
2024-05-09T02:39:10.791Z,52.02
2024-05-09T02:42:36.616Z,52.04
2024-05-09T02:46:05.520Z,52.37
2024-05-09T02:49:31.222Z,52.15
2024-05-09T02:52:57.099Z,52.39
2024-05-09T02:56:22.632Z,52.34
2024-05-09T02:59:48.319Z,52.36
2024-05-09T03:03:15.635Z,52.70
2024-05-09T03:06:43.500Z,52.82
2024-05-09T03:10:18.263Z,53.07
2024-05-09T03:13:47.797Z,52.88
2024-05-09T03:17:12.996Z,53.08
2024-05-09T03:20:39.157Z,53.11
2024-05-09T03:24:04.697Z,53.19
2024-05-09T03:27:30.687Z,53.02
2024-05-09T03:30:56.298Z,53.30
2024-05-09T03:34:22.050Z,53.22
2024-05-09T03:37:49.508Z,53.17
2024-05-09T03:41:15.222Z,53.52
2024-05-09T03:44:41.174Z,53.70
2024-05-09T03:48:07.256Z,53.76
2024-05-09T03:51:32.582Z,53.88
2024-05-09T03:54:58.515Z,54.11
2024-05-09T03:58:26.549Z,53.95
2024-05-09T04:01:56.656Z,54.27
2024-05-09T04:05:25.954Z,54.50
2024-05-09T04:08:58.210Z,54.49
2024-05-09T04:12:24.743Z,54.57
2024-05-09T04:15:50.614Z,54.88
2024-05-09T04:19:16.210Z,54.83
2024-05-09T04:22:41.826Z,55.12
2024-05-09T04:26:08.829Z,55.19
2024-05-09T04:29:37.533Z,55.34
2024-05-09T04:33:03.713Z,55.44
2024-05-09T04:36:29.533Z,55.53
2024-05-09T04:39:56.229Z,55.56
2024-05-09T04:43:22.292Z,55.86
2024-05-09T04:46:51.562Z,55.66
2024-05-09T04:50:24.703Z,55.99
2024-05-09T04:53:55.546Z,55.91
2024-05-09T04:57:20.751Z,55.93
2024-05-09T05:00:45.996Z,56.15
2024-05-09T05:04:11.589Z,56.09
2024-05-09T05:07:37.179Z,56.18
2024-05-09T05:11:02.298Z,56.19
2024-05-09T05:14:28.246Z,56.43
2024-05-09T05:17:53.630Z,56.35
2024-05-09T05:21:19.083Z,56.45
2024-05-09T05:24:44.596Z,56.37
2024-05-09T05:28:10.457Z,56.41
2024-05-09T05:31:36.031Z,56.45
2024-05-09T05:35:01.810Z,56.51
2024-05-09T05:38:28.570Z,56.38
2024-05-09T05:41:54.347Z,56.61
2024-05-09T05:45:19.673Z,56.36
2024-05-09T05:48:44.893Z,56.53
2024-05-09T05:52:13.188Z,56.42
2024-05-09T05:55:40.235Z,56.62
2024-05-09T05:59:05.775Z,56.79
2024-05-09T06:02:31.323Z,56.58
2024-05-09T06:05:56.790Z,56.58
2024-05-09T06:09:22.478Z,56.30
2024-05-09T06:12:48.274Z,56.59
2024-05-09T06:16:13.467Z,56.59
2024-05-09T06:19:38.711Z,56.32
2024-05-09T06:23:03.984Z,56.29
2024-05-09T06:26:29.217Z,55.95
2024-05-09T06:29:55.014Z,55.90
2024-05-09T06:33:20.594Z,55.99
2024-05-09T06:36:45.914Z,55.75
2024-05-09T06:40:17.353Z,55.61
2024-05-09T06:43:42.888Z,55.76
2024-05-09T06:47:09.694Z,55.70
2024-05-09T06:50:38.009Z,55.63
2024-05-09T06:54:08.433Z,55.44
2024-05-09T06:57:34.034Z,55.38
2024-05-09T07:00:59.719Z,55.21
2024-05-09T07:04:25.847Z,55.19
2024-05-09T07:07:51.518Z,55.08
2024-05-09T07:11:17.474Z,55.14
2024-05-09T07:14:43.611Z,54.95
2024-05-09T07:18:15.463Z,54.84
2024-05-09T07:21:41.140Z,54.70
2024-05-09T07:25:06.738Z,54.46
2024-05-09T07:28:31.916Z,54.22
2024-05-09T07:31:56.797Z,54.07
2024-05-09T07:35:22.841Z,53.68
2024-05-09T07:38:47.945Z,53.57
2024-05-09T07:42:13.103Z,53.40
2024-05-09T07:45:48.585Z,53.30
2024-05-09T07:53:34.693Z,52.93
2024-05-09T07:56:33.143Z,52.44
2024-05-09T07:59:58.382Z,52.30
2024-05-09T08:03:24.143Z,52.00
2024-05-09T08:06:53.521Z,51.66
2024-05-09T08:10:21.982Z,51.67
2024-05-09T08:13:50.316Z,51.30
2024-05-09T08:17:20.453Z,51.09
2024-05-09T08:20:49.915Z,50.77
2024-05-09T08:24:15.127Z,50.74
2024-05-09T08:27:41.878Z,50.36
2024-05-09T08:31:07.792Z,50.38
2024-05-09T08:34:34.302Z,50.29
2024-05-09T08:38:00.147Z,50.06
2024-05-09T08:41:25.740Z,50.21
2024-05-09T08:44:54.130Z,50.26
2024-05-09T08:48:26.358Z,49.95
2024-05-09T08:51:58.779Z,49.56
2024-05-09T08:55:29.013Z,49.31
2024-05-09T08:59:00.946Z,48.84
2024-05-09T09:02:30.184Z,48.59
2024-05-09T09:06:02.781Z,48.59
2024-05-09T09:09:29.991Z,48.60
2024-05-09T09:13:04.148Z,48.57
2024-05-09T09:16:36.520Z,48.19
2024-05-09T09:20:03.120Z,48.02
2024-05-09T09:23:30.958Z,47.76
2024-05-09T09:27:00.659Z,47.69
2024-05-09T09:30:37.297Z,47.62
2024-05-09T09:34:12.028Z,47.54
2024-05-09T09:37:40.063Z,47.22
2024-05-09T09:41:10.947Z,46.99
2024-05-09T09:44:42.132Z,46.76
2024-05-09T09:48:16.060Z,46.84
2024-05-09T09:51:44.623Z,46.39
2024-05-09T09:55:12.621Z,46.07
2024-05-09T09:58:41.172Z,46.03
2024-05-09T10:02:07.179Z,46.00
2024-05-09T10:05:34.362Z,45.90
2024-05-09T10:09:01.114Z,46.05
2024-05-09T10:12:26.679Z,45.93
2024-05-09T10:15:54.666Z,45.48
2024-05-09T10:19:27.940Z,45.24
2024-05-09T10:22:56.483Z,45.31
2024-05-09T10:26:33.664Z,45.00
2024-05-09T10:30:06.759Z,44.93
2024-05-09T10:33:42.053Z,44.80
2024-05-09T10:37:08.113Z,44.72
2024-05-09T10:40:33.907Z,44.45
2024-05-09T10:44:01.617Z,44.00
2024-05-09T10:47:31.321Z,44.04
2024-05-09T10:50:56.703Z,43.90
2024-05-09T10:54:22.629Z,43.80
2024-05-09T10:57:48.196Z,43.84
2024-05-09T11:01:14.174Z,43.65
2024-05-09T11:04:41.120Z,43.58
2024-05-09T11:08:07.673Z,43.29
2024-05-09T11:11:33.338Z,42.92
2024-05-09T11:14:59.219Z,42.80
2024-05-09T11:18:26.763Z,42.58
2024-05-09T11:21:54.728Z,42.40
2024-05-09T11:25:20.590Z,42.36
2024-05-09T11:28:47.864Z,42.36
2024-05-09T11:32:16.425Z,42.18
2024-05-09T11:35:41.717Z,41.84
2024-05-09T11:39:07.445Z,41.56
2024-05-09T11:42:32.711Z,41.45
2024-05-09T11:45:59.212Z,41.35
2024-05-09T11:49:27.087Z,41.05
2024-05-09T11:52:59.111Z,40.92
2024-05-09T11:56:24.711Z,40.73
2024-05-09T11:59:51.209Z,40.79
2024-05-09T12:03:20.570Z,40.67
2024-05-09T12:06:54.147Z,40.48
2024-05-09T12:10:32.494Z,40.21
2024-05-09T12:14:00.461Z,40.17
2024-05-09T12:17:26.667Z,39.81
2024-05-09T12:20:52.276Z,39.83
2024-05-09T12:24:18.538Z,39.82
2024-05-09T12:27:44.747Z,39.33
2024-05-09T12:31:10.638Z,39.61
2024-05-09T12:34:36.394Z,39.37
2024-05-09T12:38:01.863Z,39.10
2024-05-09T12:41:27.579Z,38.89
2024-05-09T12:44:55.673Z,38.70
2024-05-09T12:48:21.368Z,38.40
2024-05-09T12:51:47.438Z,38.10
2024-05-09T12:55:18.980Z,37.79
2024-05-09T12:58:47.981Z,37.54
2024-05-09T13:02:15.489Z,37.24
2024-05-09T13:05:46.441Z,37.04
2024-05-09T13:09:12.789Z,36.62
2024-05-09T13:12:40.939Z,36.27
2024-05-09T13:16:10.267Z,36.13
2024-05-09T13:19:38.805Z,36.07
2024-05-09T13:23:06.651Z,35.73
2024-05-09T13:26:33.094Z,35.48
2024-05-09T13:29:58.562Z,35.17
2024-05-09T13:33:23.748Z,35.23
2024-05-09T13:36:49.146Z,34.78
2024-05-09T13:40:23.202Z,34.51
2024-05-09T13:43:53.643Z,34.23
2024-05-09T13:47:19.300Z,34.04
2024-05-09T13:50:48.463Z,34.06
2024-05-09T13:54:18.597Z,33.69
2024-05-09T13:57:55.636Z,33.54
2024-05-09T14:01:23.093Z,33.25
2024-05-09T14:04:51.060Z,33.09
2024-05-09T14:08:19.851Z,32.99
2024-05-09T14:11:52.521Z,32.92
2024-05-09T14:15:19.018Z,32.46
2024-05-09T14:18:45.301Z,32.35
2024-05-09T14:22:16.799Z,32.14
2024-05-09T14:25:45.518Z,32.27
2024-05-09T14:29:14.601Z,32.02
2024-05-09T14:32:40.840Z,31.63
2024-05-09T14:36:07.196Z,31.57
2024-05-09T14:39:32.950Z,31.10
2024-05-09T14:43:01.041Z,30.89
2024-05-09T14:46:28.880Z,30.81
2024-05-09T14:50:00.172Z,30.46
2024-05-09T14:53:29.217Z,30.49
2024-05-09T14:56:55.312Z,30.36
2024-05-09T15:00:28.663Z,30.30
2024-05-09T15:03:58.383Z,29.93
2024-05-09T15:07:24.129Z,29.69
2024-05-09T15:10:50.902Z,29.48
2024-05-09T15:14:16.707Z,29.38
2024-05-09T15:17:42.764Z,29.04
2024-05-09T15:21:08.365Z,29.40
2024-05-09T15:24:33.933Z,29.27
2024-05-09T15:28:00.138Z,29.12
2024-05-09T15:31:26.382Z,29.12
2024-05-09T15:34:54.698Z,29.08
2024-05-09T15:38:21.837Z,29.12
2024-05-09T15:41:47.455Z,29.25
2024-05-09T15:45:12.445Z,29.33
2024-05-09T15:48:38.719Z,29.17
2024-05-09T15:52:05.741Z,29.55
2024-05-09T15:55:33.464Z,29.41
2024-05-09T15:58:59.787Z,29.28
2024-05-09T16:02:25.441Z,29.46
2024-05-09T16:05:51.813Z,29.66
2024-05-09T16:09:17.778Z,29.64
2024-05-09T16:12:45.651Z,29.80
2024-05-09T16:16:11.212Z,29.87
2024-05-09T16:19:36.676Z,29.73
2024-05-09T16:23:01.843Z,30.02
2024-05-09T16:26:26.966Z,30.13
2024-05-09T16:29:52.115Z,30.16
2024-05-09T16:33:19.078Z,30.26
2024-05-09T16:36:44.665Z,30.35
2024-05-09T16:40:21.774Z,30.59
2024-05-09T16:43:55.093Z,30.78
2024-05-09T16:47:20.429Z,30.74
2024-05-09T16:50:45.822Z,30.86
2024-05-09T16:54:11.393Z,31.05
2024-05-09T16:57:36.727Z,31.28
2024-05-09T17:01:02.298Z,31.32
2024-05-09T17:04:28.127Z,31.26
2024-05-09T17:07:53.775Z,31.56
2024-05-09T17:11:19.538Z,31.64
2024-05-09T17:14:45.098Z,31.71
2024-05-09T17:18:11.122Z,32.00
2024-05-09T17:21:38.467Z,32.04
2024-05-09T17:25:04.086Z,32.20
2024-05-09T17:28:29.776Z,32.38
2024-05-09T17:31:55.730Z,32.44
2024-05-09T17:35:22.014Z,32.74
2024-05-09T17:38:47.791Z,32.75
2024-05-09T17:42:13.071Z,32.92
2024-05-09T17:45:38.513Z,32.97
2024-05-09T17:49:05.112Z,33.14
2024-05-09T17:52:30.936Z,33.24
2024-05-09T17:55:56.543Z,33.38
2024-05-09T17:59:21.953Z,33.59
2024-05-09T18:02:47.036Z,33.95
2024-05-09T18:06:12.363Z,34.11
2024-05-09T18:09:37.785Z,34.36
2024-05-09T18:13:03.381Z,34.56
2024-05-09T18:16:29.259Z,34.77
2024-05-09T18:19:54.146Z,34.99
2024-05-09T18:23:19.416Z,35.17
2024-05-09T18:26:45.433Z,35.46
2024-05-09T18:30:24.065Z,35.65
2024-05-09T18:33:54.072Z,35.83
2024-05-09T18:37:19.816Z,36.13
2024-05-09T18:40:48.380Z,36.32
2024-05-09T18:44:14.836Z,36.59
2024-05-09T18:47:40.373Z,36.85
2024-05-09T18:51:06.699Z,36.99
2024-05-09T18:54:32.493Z,37.21
2024-05-09T18:57:58.238Z,37.39
2024-05-09T19:01:23.275Z,37.61
2024-05-09T19:04:49.623Z,37.86
2024-05-09T19:08:15.908Z,38.12
2024-05-09T19:11:41.610Z,38.22
2024-05-09T19:15:08.436Z,38.51
2024-05-09T19:18:33.706Z,38.67
2024-05-09T19:22:00.036Z,38.83
2024-05-09T19:25:25.303Z,39.05
2024-05-09T19:28:50.323Z,39.40
2024-05-09T19:32:15.636Z,39.52
2024-05-09T19:35:40.652Z,39.64
2024-05-09T19:39:06.567Z,39.82
2024-05-09T19:42:32.284Z,40.04
2024-05-09T19:45:57.870Z,40.11
2024-05-09T19:49:23.343Z,40.58
2024-05-09T19:52:48.936Z,40.60
2024-05-09T19:56:14.156Z,40.78
2024-05-09T19:59:39.417Z,40.94
2024-05-09T20:03:04.922Z,41.17
2024-05-09T20:06:31.383Z,41.30
2024-05-09T20:09:57.079Z,41.64
2024-05-09T20:13:23.528Z,41.77
2024-05-09T20:16:48.908Z,42.04
2024-05-09T20:20:24.554Z,42.02
2024-05-09T20:23:58.246Z,42.23
2024-05-09T20:27:24.008Z,42.54
2024-05-09T20:30:49.347Z,42.70
2024-05-09T20:34:14.776Z,42.81
2024-05-09T20:37:39.796Z,42.95
2024-05-09T20:41:04.962Z,43.17
2024-05-09T20:44:30.223Z,43.41
2024-05-09T20:47:55.811Z,43.57
2024-05-09T20:51:21.248Z,43.67
2024-05-09T20:54:46.482Z,43.88
2024-05-09T20:58:12.199Z,43.89
2024-05-09T21:01:37.851Z,44.18
2024-05-09T21:05:03.813Z,44.13
2024-05-09T21:08:29.617Z,44.27
2024-05-09T21:11:55.155Z,44.43
2024-05-09T21:15:20.428Z,44.46
2024-05-09T21:18:47.249Z,44.75
2024-05-09T21:22:14.166Z,44.84
2024-05-09T21:25:39.076Z,44.97
2024-05-09T21:29:04.855Z,45.11
2024-05-09T21:32:31.219Z,45.21
2024-05-09T21:35:56.894Z,45.30
2024-05-09T21:39:25.207Z,45.50
2024-05-09T21:42:50.313Z,45.44
2024-05-09T21:46:15.989Z,45.57
2024-05-09T21:49:44.383Z,45.69
2024-05-09T21:53:09.700Z,45.87
2024-05-09T21:56:34.589Z,45.76
2024-05-09T21:59:59.715Z,45.93
2024-05-09T22:03:25.522Z,46.03
2024-05-09T22:06:51.164Z,46.28
2024-05-09T22:10:25.630Z,46.36
2024-05-09T22:13:55.420Z,46.55
2024-05-09T22:17:20.811Z,46.65
2024-05-09T22:20:46.888Z,46.93
2024-05-09T22:24:12.319Z,47.02
2024-05-09T22:27:37.391Z,47.06
2024-05-09T22:31:03.004Z,47.46
2024-05-09T22:34:28.623Z,47.57
2024-05-09T22:37:53.865Z,47.73
2024-05-09T22:41:19.480Z,47.80
2024-05-09T22:44:44.528Z,47.95
2024-05-09T22:48:10.807Z,48.02
2024-05-09T22:51:36.433Z,48.25
2024-05-09T22:55:01.501Z,48.28
2024-05-09T22:58:26.658Z,48.37
2024-05-09T23:01:51.669Z,48.52
2024-05-09T23:05:17.407Z,48.73
2024-05-09T23:08:42.761Z,48.82
2024-05-09T23:12:08.858Z,48.90
2024-05-09T23:15:34.155Z,49.03
2024-05-09T23:18:59.940Z,49.18
2024-05-09T23:22:25.592Z,49.31
2024-05-09T23:25:51.228Z,49.31
2024-05-09T23:29:16.706Z,49.37
2024-05-09T23:32:41.909Z,49.57
2024-05-09T23:36:08.002Z,49.60
2024-05-09T23:39:33.517Z,49.68
2024-05-09T23:42:58.838Z,49.94
2024-05-09T23:46:24.233Z,50.08
2024-05-09T23:49:49.717Z,50.15
2024-05-09T23:53:14.876Z,50.30
2024-05-09T23:56:40.281Z,50.41
